This is the latest recevied weather packets stored in our database for station/object W7TTE. If no packets are shown the sender has not sent any weather packets the latest 1 day(s).
| Time | Temp. | Humidity | Pressure | Rain* | Wind** | Luminosity | Snow |
|---|---|---|---|---|---|---|---|
| 1778042587 | 18.89° C | 35% | 1014.8 hPa | 0 mm | 0 m/s | 0 W/m² | - |
| 1778042284 | 18.89° C | 35% | 1014.7 hPa | 0 mm | 0 m/s | 0 W/m² | - |
| 1778041981 | 19.44° C | 34% | 1014.6 hPa | 0 mm | 0 m/s | 0 W/m² | - |
| 1778041680 | 19.44° C | 34% | 1014.5 hPa | 0 mm | 0.45 m/s, 207° | 0 W/m² | - |
| 1778041379 | 19.44° C | 34% | 1014.6 hPa | 0 mm | 0.45 m/s, 231° | 0 W/m² | - |
| 1778041077 | 19.44° C | 34% | 1014.5 hPa | 0 mm | 0.45 m/s, 196° | 0 W/m² | - |
| 1778040773 | 19.44° C | 34% | 1014.4 hPa | 0 mm | 0.45 m/s, 208° | 0 W/m² | - |
| 1778040471 | 19.44° C | 34% | 1014.4 hPa | 0 mm | 0 m/s | 0 W/m² | - |
| 1778040168 | 19.44° C | 34% | 1014.4 hPa | 0 mm | 0 m/s | 0 W/m² | - |
| 1778039397 | 20° C | 32% | 1013.9 hPa | 0 mm | 0.45 m/s, 190° | 0 W/m² | - |
| 1778039095 | 20° C | 32% | 1013.9 hPa | 0 mm | 0.45 m/s, 190° | 0 W/m² | - |
| 1778038791 | 20.56° C | 32% | 1013.9 hPa | 0 mm | 0.45 m/s, 196° | 0 W/m² | - |
| 1778038489 | 20.56° C | 32% | 1014.1 hPa | 0 mm | 0.89 m/s, 212° | 0 W/m² | - |
| 1778038185 | 20.56° C | 31% | 1014 hPa | 0 mm | 0.89 m/s, 197° | 0 W/m² | - |
| 1778037883 | 20.56° C | 31% | 1013.9 hPa | 0 mm | 0.45 m/s, 214° | 0 W/m² | - |
| 1778037579 | 20.56° C | 31% | 1013.8 hPa | 0 mm | 0.89 m/s, 212° | 0 W/m² | - |
| 1778037277 | 20.56° C | 31% | 1013.6 hPa | 0 mm | 0.89 m/s, 219° | 0 W/m² | - |
| 1778036974 | 20.56° C | 31% | 1013.8 hPa | 0 mm | 0.45 m/s, 185° | 0 W/m² | - |
| 1778036672 | 21.11° C | 31% | 1013.6 hPa | 0 mm | 0.89 m/s, 211° | 0 W/m² | - |
| 1778036368 | 21.11° C | 31% | 1013.7 hPa | 0 mm | 0.89 m/s, 235° | 0 W/m² | - |
| 1778036066 | 21.67° C | 30% | 1013.6 hPa | 0 mm | 0.89 m/s, 190° | 0 W/m² | - |
| 1778035762 | 21.67° C | 30% | 1013.6 hPa | 0 mm | 1.34 m/s, 252° | 0 W/m² | - |
| 1778035459 | 21.67° C | 30% | 1013.5 hPa | 0 mm | 0.89 m/s, 189° | 0 W/m² | - |
| 1778035155 | 21.67° C | 29% | 1013.1 hPa | 0 mm | 0.45 m/s, 155° | 0 W/m² | - |
| 1778034852 | 22.22° C | 29% | 1013.4 hPa | 0 mm | 1.34 m/s, 229° | 0 W/m² | - |
* Rain latest hour (hover to see other rain measurements)
** Current wind speed in m/s (hover to see current wind gust speed)